< Typhoon 201926 2019 Season Typhoon 201928 >
Typhoon 201927 (FUNG-WONG)
General InformationTrack Information on Google MapsDetailed Wind InformationForecast History on Google MapsAccess Analytics MapList of All Images || NewsDisaster Info.WeblogTrackbackTyphoon FrontTwiphoonTyphoon Now!Typhoon ImaginationJMA Disaster Info. XMLResourceGoogle EarthGE AnimationAtom FeedGeoJSON
Detalied Best Track (Time Zone = UTC)
Year Month Day Hour Lat. Long. Pressure (hPa) Wind (kt) Class Image Chart
2019 11 19 00 11.5 132.5 1004 30 2 Image Chart
2019 11 19 03 11.9 131.2 1004 30 2 Image Chart
2019 11 19 06 12.9 130.7 1002 30 2 Image Chart
2019 11 19 09 14.1 130.4 1002 30 2 Image Chart
2019 11 19 12 14.3 129.6 1002 30 2 Image Chart
2019 11 19 15 15.1 129.1 1002 30 2 Image Chart
2019 11 19 18 15.3 128.8 1000 30 2 Image Chart
2019 11 19 21 15.6 128.8 1000 30 2 Image Chart
2019 11 20 00 16.1 128.2 1000 35 3 Image Chart
2019 11 20 03 17.0 127.7 1000 35 3 Image Chart
2019 11 20 06 17.6 127.2 1000 35 3 Image Chart
2019 11 20 09 18.3 126.7 1000 35 3 Image Chart
2019 11 20 12 19.0 126.0 998 40 3 Image Chart
2019 11 20 15 19.9 125.4 994 45 3 Image Chart
2019 11 20 18 20.0 125.3 992 50 4 Image Chart
2019 11 20 21 20.0 125.3 992 50 4 Image Chart
2019 11 21 00 20.2 125.0 990 55 4 Image Chart
2019 11 21 03 20.3 124.6 990 55 4 Image Chart
2019 11 21 06 20.5 124.4 990 55 4 Image Chart
2019 11 21 09 20.9 124.4 990 55 4 Image Chart
2019 11 21 12 21.3 124.3 990 55 4 Image Chart
2019 11 21 15 21.7 124.3 990 55 4 Image Chart
2019 11 21 18 22.2 124.4 994 50 4 Image Chart
2019 11 21 21 22.6 124.5 996 50 4 Image Chart
2019 11 22 00 22.9 125.0 996 50 4 Image Chart
2019 11 22 03 23.4 125.2 996 50 4 Image Chart
2019 11 22 06 23.7 125.4 998 45 3 Image Chart
2019 11 22 09 23.7 125.9 1002 35 3 Image Chart
2019 11 22 12 24.3 125.7 1004 35 3 Image Chart
2019 11 22 15 24.7 125.7 1006 35 3 Image Chart
2019 11 22 18 25.0 126.0 1008 0 2 Image Chart
Japan Meteorological Agency Best Track Data | Correction Date : 2019-11-22
< Typhoon 201926 2019 Season Typhoon 201928 >

Help